createdAt,value
2018-08-22T00:00:46.608Z,62.34
2018-08-22T00:01:46.536Z,61.18
2018-08-22T00:02:46.467Z,62.05
2018-08-22T00:03:46.396Z,61.66
2018-08-22T00:04:46.326Z,61.27
2018-08-22T00:05:46.260Z,61.27
2018-08-22T00:06:46.190Z,61.76
2018-08-22T00:07:46.116Z,62.24
2018-08-22T00:08:46.047Z,62.24
2018-08-22T00:09:45.972Z,62.53
2018-08-22T00:10:45.906Z,62.05
2018-08-22T00:11:45.831Z,63.21
2018-08-22T00:12:45.762Z,62.92
2018-08-22T00:13:45.691Z,62.73
2018-08-22T00:14:45.622Z,62.73
2018-08-22T00:15:45.550Z,62.40
2018-08-22T00:16:45.482Z,63.18
2018-08-22T00:17:45.408Z,62.79
2018-08-22T00:18:45.338Z,62.40
2018-08-22T00:19:45.269Z,63.37
2018-08-22T00:20:45.197Z,63.37
2018-08-22T00:21:45.125Z,63.28
2018-08-22T00:22:45.055Z,63.47
2018-08-22T00:23:44.983Z,63.47
2018-08-22T00:24:44.913Z,63.66
2018-08-22T00:25:44.843Z,63.95
2018-08-22T00:26:44.772Z,63.76
2018-08-22T00:27:44.704Z,64.34
2018-08-22T00:28:44.646Z,64.63
2018-08-22T00:29:44.579Z,64.63
2018-08-22T00:30:44.489Z,64.72
2018-08-22T00:31:44.421Z,64.72
2018-08-22T00:32:44.351Z,64.89
2018-08-22T00:33:44.278Z,64.40
2018-08-22T00:34:44.209Z,64.79
2018-08-22T00:35:44.136Z,64.63
2018-08-22T00:36:44.074Z,64.72
2018-08-22T00:37:43.993Z,64.92
2018-08-22T00:38:43.936Z,65.37
2018-08-22T00:39:43.851Z,65.88
2018-08-22T00:40:43.785Z,65.11
2018-08-22T00:41:43.715Z,64.72
2018-08-22T00:42:43.662Z,64.53
2018-08-22T00:43:43.574Z,65.01
2018-08-22T00:44:43.500Z,64.59
2018-08-22T00:45:43.426Z,64.69
2018-08-22T00:46:43.362Z,64.69
2018-08-22T00:47:43.289Z,64.89
2018-08-22T00:48:43.215Z,64.79
2018-08-22T00:49:43.144Z,64.59
2018-08-22T00:50:43.074Z,65.30
2018-08-22T00:51:43.004Z,65.47
2018-08-22T00:52:42.932Z,65.08
2018-08-22T00:53:42.862Z,65.37
2018-08-22T00:54:42.790Z,65.27
2018-08-22T00:55:42.720Z,65.95
2018-08-22T00:56:42.649Z,65.75
2018-08-22T00:57:42.582Z,65.95
2018-08-22T00:58:42.512Z,66.24
2018-08-22T00:59:42.441Z,66.24
2018-08-22T01:00:42.365Z,65.85
2018-08-22T01:01:42.293Z,66.14
2018-08-22T01:02:42.225Z,65.85
2018-08-22T01:03:42.158Z,65.75
2018-08-22T01:04:42.082Z,65.37
2018-08-22T01:05:42.021Z,64.69
2018-08-22T01:06:41.942Z,65.47
2018-08-22T01:07:41.869Z,66.14
2018-08-22T01:08:41.801Z,66.43
2018-08-22T01:09:41.727Z,66.24
2018-08-22T01:10:41.656Z,65.47
2018-08-22T01:11:41.588Z,65.85
2018-08-22T01:12:41.515Z,65.85
2018-08-22T01:13:41.441Z,66.33
2018-08-22T01:14:41.372Z,66.33
2018-08-22T01:15:41.304Z,65.95
2018-08-22T01:16:41.232Z,66.72
2018-08-22T01:17:41.160Z,66.14
2018-08-22T01:18:41.095Z,66.01
2018-08-22T01:19:41.017Z,66.11
2018-08-22T01:20:40.945Z,66.72
2018-08-22T01:21:40.896Z,66.69
2018-08-22T01:22:40.802Z,66.69
2018-08-22T01:23:40.734Z,66.97
2018-08-22T01:24:40.663Z,66.40
2018-08-22T01:25:40.589Z,66.88
2018-08-22T01:26:40.519Z,67.07
2018-08-22T01:27:40.448Z,66.40
2018-08-22T01:28:40.375Z,66.69
2018-08-22T01:29:40.306Z,67.07
2018-08-22T01:30:40.234Z,67.27
2018-08-22T01:31:40.165Z,67.65
2018-08-22T01:32:40.092Z,67.27
2018-08-22T01:33:40.021Z,67.55
2018-08-22T01:34:39.949Z,67.46
2018-08-22T01:35:39.882Z,67.17
2018-08-22T01:36:39.808Z,67.65
2018-08-22T01:37:39.737Z,67.17
2018-08-22T01:38:39.666Z,68.13
2018-08-22T01:39:39.595Z,68.13
2018-08-22T01:40:39.537Z,68.43
2018-08-22T01:41:39.453Z,68.13
2018-08-22T01:42:39.380Z,68.13
2018-08-22T01:43:39.310Z,67.85
2018-08-22T01:44:39.239Z,67.75
2018-08-22T01:45:39.173Z,68.43
2018-08-22T01:46:39.099Z,68.23
2018-08-22T01:47:39.022Z,68.33
2018-08-22T01:48:38.955Z,68.33
2018-08-22T01:49:38.884Z,68.52
2018-08-22T01:50:38.809Z,68.43
2018-08-22T01:51:38.739Z,68.01
2018-08-22T01:52:38.670Z,68.10
2018-08-22T01:53:38.599Z,68.81
2018-08-22T01:54:38.523Z,68.77
2018-08-22T01:55:38.454Z,68.81
2018-08-22T01:56:38.383Z,68.39
2018-08-22T01:57:38.313Z,69.26
2018-08-22T01:58:38.243Z,68.91
2018-08-22T01:59:38.176Z,68.91
2018-08-22T02:00:38.098Z,69.26
2018-08-22T02:01:38.024Z,69.45
2018-08-22T02:02:37.952Z,68.19
2018-08-22T02:03:37.881Z,68.68
2018-08-22T02:04:37.811Z,68.87
2018-08-22T02:05:37.737Z,69.07
2018-08-22T02:06:37.677Z,68.59
2018-08-22T02:07:37.595Z,68.29
2018-08-22T02:08:37.531Z,68.49
2018-08-22T02:09:37.461Z,69.84
2018-08-22T02:10:37.386Z,69.07
2018-08-22T02:11:37.310Z,69.55
2018-08-22T02:12:37.240Z,69.45
2018-08-22T02:13:37.167Z,69.45
2018-08-22T02:14:37.098Z,68.87
2018-08-22T02:15:37.026Z,69.64
2018-08-22T02:16:36.960Z,69.84
2018-08-22T02:17:36.884Z,69.64
2018-08-22T02:18:36.822Z,70.22
2018-08-22T02:19:36.741Z,69.45
2018-08-22T02:20:36.671Z,69.74
2018-08-22T02:21:36.594Z,69.64
2018-08-22T02:22:36.527Z,69.74
2018-08-22T02:23:36.454Z,70.03
2018-08-22T02:24:36.382Z,69.07
2018-08-22T02:25:36.308Z,70.22
2018-08-22T02:26:36.239Z,70.03
2018-08-22T02:27:36.166Z,69.45
2018-08-22T02:28:36.096Z,69.55
2018-08-22T02:29:36.023Z,69.84
2018-08-22T02:30:35.956Z,70.32
2018-08-22T02:31:35.882Z,70.32
2018-08-22T02:32:35.825Z,69.74
2018-08-22T02:33:35.738Z,69.45
2018-08-22T02:34:35.665Z,70.03
2018-08-22T02:35:35.596Z,69.84
2018-08-22T02:36:35.524Z,70.03
2018-08-22T02:37:35.453Z,70.03
2018-08-22T02:38:35.379Z,70.32
2018-08-22T02:39:35.308Z,70.13
2018-08-22T02:40:35.238Z,70.00
2018-08-22T02:41:35.162Z,70.09
2018-08-22T02:42:35.095Z,69.90
2018-08-22T02:43:35.022Z,70.22
2018-08-22T02:44:34.948Z,70.76
2018-08-22T02:45:34.879Z,70.67
2018-08-22T02:46:34.811Z,71.34
2018-08-22T02:47:34.737Z,70.86
2018-08-22T02:48:34.664Z,70.96
2018-08-22T02:49:34.593Z,71.73
2018-08-22T02:50:34.519Z,71.34
2018-08-22T02:51:34.451Z,72.02
2018-08-22T02:52:34.376Z,72.41
2018-08-22T02:53:34.306Z,73.08
2018-08-22T02:54:34.232Z,73.08
2018-08-22T02:55:34.160Z,72.12
2018-08-22T02:56:34.090Z,71.83
2018-08-22T02:57:34.028Z,72.37
2018-08-22T02:58:33.943Z,72.50
2018-08-22T02:59:33.873Z,72.37
2018-08-22T03:00:33.803Z,73.24
2018-08-22T03:01:33.803Z,74.10
2018-08-22T03:02:33.661Z,73.43
2018-08-22T03:03:33.585Z,72.99
2018-08-22T03:04:33.584Z,73.24
2018-08-22T03:05:33.555Z,73.33
2018-08-22T03:06:33.442Z,73.53
2018-08-22T03:07:33.365Z,74.20
2018-08-22T03:08:33.285Z,73.43
2018-08-22T03:09:33.206Z,74.20
2018-08-22T03:10:33.147Z,73.72
2018-08-22T03:11:33.085Z,73.72
2018-08-22T03:12:32.997Z,73.72
2018-08-22T03:13:33.862Z,73.53
2018-08-22T03:14:32.849Z,73.05
2018-08-22T03:15:32.787Z,74.68
2018-08-22T03:16:32.716Z,73.33
2018-08-22T03:17:32.640Z,74.01
2018-08-22T03:18:32.566Z,74.01
2018-08-22T03:19:32.518Z,74.30
2018-08-22T03:20:32.433Z,74.01
2018-08-22T03:21:32.346Z,73.24
2018-08-22T03:22:32.294Z,73.62
2018-08-22T03:23:32.211Z,74.88
2018-08-22T03:24:32.943Z,74.58
2018-08-22T03:25:32.073Z,74.58
2018-08-22T03:26:31.998Z,73.91
2018-08-22T03:27:31.930Z,74.88
2018-08-22T03:28:31.836Z,74.88
2018-08-22T03:29:31.775Z,75.16
2018-08-22T03:30:31.708Z,74.97
2018-08-22T03:31:31.577Z,75.07
2018-08-22T03:32:31.501Z,74.88
2018-08-22T03:33:31.441Z,74.97
2018-08-22T03:34:31.354Z,74.49
2018-08-22T03:35:31.281Z,74.78
2018-08-22T03:36:38.375Z,74.49
2018-08-22T03:38:35.164Z,74.88
2018-08-22T03:39:35.047Z,74.58
2018-08-22T03:40:34.973Z,75.16
2018-08-22T03:41:34.943Z,76.23
2018-08-22T03:42:34.833Z,75.84
2018-08-22T03:43:34.756Z,75.93
2018-08-22T03:44:34.685Z,75.84
2018-08-22T03:45:34.611Z,76.32
2018-08-22T03:46:34.551Z,74.97
2018-08-22T03:47:34.468Z,75.74
2018-08-22T03:48:34.398Z,75.84
2018-08-22T03:49:34.329Z,75.93
2018-08-22T03:50:34.267Z,76.67
2018-08-22T03:51:34.180Z,76.67
2018-08-22T03:52:34.110Z,76.09
2018-08-22T03:53:34.035Z,76.38
2018-08-22T03:54:33.963Z,76.48
2018-08-22T03:55:33.891Z,76.38
2018-08-22T03:56:33.834Z,76.67
2018-08-22T03:57:33.747Z,76.38
2018-08-22T03:58:33.676Z,76.57
2018-08-22T03:59:33.604Z,76.48
2018-08-22T04:00:33.531Z,76.38
2018-08-22T04:01:33.458Z,77.53
2018-08-22T04:02:33.385Z,77.25
2018-08-22T04:03:33.320Z,76.96
2018-08-22T04:04:33.245Z,77.73
2018-08-22T04:05:33.170Z,77.53
2018-08-22T04:06:33.107Z,76.48
2018-08-22T04:07:33.027Z,76.18
2018-08-22T04:08:32.952Z,77.06
2018-08-22T04:09:32.883Z,77.63
2018-08-22T04:10:32.808Z,77.73
2018-08-22T04:11:32.739Z,78.59
2018-08-22T04:12:32.663Z,78.75
2018-08-22T04:13:32.590Z,77.69
2018-08-22T04:14:32.516Z,78.40
2018-08-22T04:15:32.449Z,78.02
2018-08-22T04:16:32.382Z,78.69
2018-08-22T04:17:32.301Z,78.98
2018-08-22T04:18:32.293Z,79.27
2018-08-22T04:19:32.157Z,79.23
2018-08-22T04:20:32.160Z,78.75
2018-08-22T04:21:32.010Z,78.46
2018-08-22T04:22:32.659Z,78.69
2018-08-22T04:23:31.902Z,78.31
2018-08-22T04:24:31.872Z,79.23
2018-08-22T04:25:31.732Z,79.13
2018-08-22T04:26:31.718Z,80.58
2018-08-22T04:27:31.641Z,78.94
2018-08-22T04:28:31.512Z,78.85
2018-08-22T04:29:31.497Z,79.23
2018-08-22T04:30:31.482Z,79.61
2018-08-22T04:31:31.288Z,78.65
2018-08-22T04:32:31.300Z,79.61
2018-08-22T04:33:31.165Z,78.75
2018-08-22T04:34:31.095Z,78.50
2018-08-22T04:35:31.002Z,78.88
2018-08-22T04:36:30.948Z,78.98
2018-08-22T04:37:30.902Z,80.04
2018-08-22T04:38:30.780Z,78.88
2018-08-22T04:39:30.707Z,78.40
2018-08-22T04:40:30.647Z,78.31
2018-08-22T04:41:30.578Z,77.92
2018-08-22T04:42:30.496Z,78.59
2018-08-22T04:43:30.417Z,78.31
2018-08-22T04:44:30.347Z,78.21
2018-08-22T04:45:30.275Z,78.59
2018-08-22T04:46:30.211Z,78.59
2018-08-22T04:47:30.130Z,78.88
2018-08-22T04:48:30.125Z,78.98
2018-08-22T04:49:30.101Z,78.31
2018-08-22T04:50:29.915Z,79.90
2018-08-22T04:51:29.871Z,78.88
2018-08-22T04:52:29.837Z,78.56
2018-08-22T04:53:29.753Z,78.11
2018-08-22T04:54:29.673Z,78.59
2018-08-22T04:55:29.552Z,78.50
2018-08-22T04:56:29.500Z,79.66
2018-08-22T04:57:29.421Z,79.94
2018-08-22T04:58:29.333Z,79.36
2018-08-22T04:59:30.123Z,78.31
2018-08-22T05:00:29.224Z,78.59
2018-08-22T05:01:29.118Z,78.50
2018-08-22T05:02:29.075Z,78.79
2018-08-22T05:03:28.980Z,79.66
2018-08-22T05:04:28.908Z,79.85
2018-08-22T05:05:28.825Z,80.62
2018-08-22T05:06:28.755Z,78.79
2018-08-22T05:07:28.684Z,78.79
2018-08-22T05:08:28.620Z,80.14
2018-08-22T05:09:29.194Z,78.98
2018-08-22T05:10:28.464Z,78.59
2018-08-22T05:11:28.462Z,78.98
2018-08-22T05:12:28.329Z,79.36
2018-08-22T05:13:28.252Z,78.98
2018-08-22T05:14:28.176Z,78.79
2018-08-22T05:15:28.103Z,80.23
2018-08-22T05:16:28.030Z,78.98
2018-08-22T05:17:27.959Z,78.31
2018-08-22T05:18:27.886Z,78.21
2018-08-22T05:19:27.815Z,78.40
2018-08-22T05:20:27.741Z,78.98
2018-08-22T05:21:27.738Z,78.98
2018-08-22T05:22:27.667Z,79.46
2018-08-22T05:23:27.582Z,78.59
2018-08-22T05:24:27.523Z,78.79
2018-08-22T05:25:27.447Z,78.50
2018-08-22T05:26:27.314Z,78.79
2018-08-22T05:27:27.306Z,79.66
2018-08-22T05:28:27.239Z,79.08
2018-08-22T05:29:27.158Z,79.17
2018-08-22T05:30:27.094Z,79.17
2018-08-22T05:31:26.973Z,79.36
2018-08-22T05:32:26.932Z,79.46
2018-08-22T05:33:26.863Z,79.17
2018-08-22T05:34:26.793Z,79.85
2018-08-22T05:35:26.705Z,81.10
2018-08-22T05:36:26.652Z,79.85
2018-08-22T05:37:26.611Z,79.66
2018-08-22T05:38:26.513Z,78.69
2018-08-22T05:39:26.436Z,79.31
2018-08-22T05:40:26.295Z,78.63
2018-08-22T05:41:26.269Z,78.54
2018-08-22T05:42:26.191Z,78.63
2018-08-22T05:43:26.097Z,78.54
2018-08-22T05:44:26.021Z,79.89
2018-08-22T05:45:25.934Z,78.92
2018-08-22T05:46:25.860Z,79.11
2018-08-22T05:47:25.794Z,79.11
2018-08-22T05:48:25.719Z,78.54
2018-08-22T05:49:25.648Z,79.21
2018-08-22T05:50:25.571Z,78.44
2018-08-22T05:51:25.577Z,78.44
2018-08-22T05:52:26.203Z,78.54
2018-08-22T05:53:25.412Z,78.34
2018-08-22T05:54:25.362Z,79.60
2018-08-22T05:55:25.275Z,79.50
2018-08-22T05:56:25.254Z,79.11
2018-08-22T05:57:25.139Z,78.44
2018-08-22T05:58:25.056Z,78.92
2018-08-22T05:59:25.003Z,78.63
2018-08-22T06:00:24.928Z,79.41
2018-08-22T06:01:24.854Z,79.50
2018-08-22T06:02:24.785Z,78.92
2018-08-22T06:03:24.750Z,78.54
2018-08-22T06:04:24.629Z,79.89
2018-08-22T06:05:24.569Z,79.21
2018-08-22T06:06:24.482Z,80.27
2018-08-22T06:07:24.412Z,79.11
2018-08-22T06:08:24.347Z,79.21
2018-08-22T06:09:24.271Z,79.02
2018-08-22T06:10:24.212Z,78.06
2018-08-22T06:11:24.119Z,78.63
2018-08-22T06:12:24.053Z,77.86
2018-08-22T06:13:23.983Z,78.29
2018-08-22T06:14:23.924Z,78.96
2018-08-22T06:15:23.872Z,78.73
2018-08-22T06:16:23.775Z,77.71
2018-08-22T06:17:23.702Z,78.86
2018-08-22T06:18:23.624Z,80.02
2018-08-22T06:19:23.551Z,79.35
2018-08-22T06:20:23.488Z,78.77
2018-08-22T06:21:23.409Z,78.77
2018-08-22T06:22:23.269Z,79.74
2018-08-22T06:23:23.198Z,79.06
2018-08-22T06:24:23.125Z,78.38
2018-08-22T06:25:23.055Z,77.42
2018-08-22T06:26:22.981Z,77.42
2018-08-22T06:27:22.925Z,77.71
2018-08-22T06:28:22.869Z,78.29
2018-08-22T06:29:22.836Z,78.19
2018-08-22T06:30:22.774Z,78.86
2018-08-22T06:31:22.637Z,78.48
2018-08-22T06:32:22.613Z,79.58
2018-08-22T06:33:22.542Z,79.10
2018-08-22T06:34:22.491Z,77.75
2018-08-22T06:35:22.388Z,76.01
2018-08-22T06:36:22.406Z,76.50
2018-08-22T06:37:22.255Z,76.68
2018-08-22T06:38:22.187Z,76.10
2018-08-22T06:39:22.104Z,76.50
2018-08-22T06:40:22.032Z,77.55
2018-08-22T06:41:21.990Z,76.78
2018-08-22T06:42:21.916Z,77.26
2018-08-22T06:43:21.828Z,76.10
2018-08-22T06:44:21.813Z,76.53
2018-08-22T06:45:21.706Z,76.24
2018-08-22T06:46:21.627Z,75.67
2018-08-22T06:47:21.557Z,75.18
2018-08-22T06:48:21.487Z,75.18
2018-08-22T06:49:21.390Z,75.95
2018-08-22T06:50:21.408Z,75.85
2018-08-22T06:51:21.302Z,74.89
2018-08-22T06:52:21.183Z,75.09
2018-08-22T06:53:21.116Z,75.95
2018-08-22T06:54:21.040Z,75.95
2018-08-22T06:55:20.978Z,74.99
2018-08-22T06:56:20.915Z,74.41
2018-08-22T06:57:20.818Z,73.63
2018-08-22T06:58:20.751Z,73.63
2018-08-22T06:59:20.689Z,74.31
2018-08-22T07:00:20.611Z,74.54
2018-08-22T07:01:20.559Z,74.54
2018-08-22T07:02:20.487Z,74.12
2018-08-22T07:03:20.407Z,73.28
2018-08-22T07:04:20.376Z,72.61
2018-08-22T07:05:20.196Z,72.71
2018-08-22T07:06:20.227Z,73.09
2018-08-22T07:07:20.052Z,73.09
2018-08-22T07:08:20.045Z,73.48
2018-08-22T07:09:19.966Z,73.09
2018-08-22T07:10:19.882Z,72.80
2018-08-22T07:11:19.766Z,73.77
2018-08-22T07:12:19.696Z,73.58
2018-08-22T07:13:19.625Z,72.36
2018-08-22T07:14:19.556Z,72.16
2018-08-22T07:15:19.483Z,72.16
2018-08-22T07:16:19.412Z,71.10
2018-08-22T07:17:19.340Z,70.23
2018-08-22T07:18:19.271Z,71.20
2018-08-22T07:19:19.302Z,70.42
2018-08-22T07:20:19.130Z,70.04
2018-08-22T07:21:19.057Z,70.81
2018-08-22T07:22:18.993Z,71.30
2018-08-22T07:23:18.916Z,71.10
2018-08-22T07:24:18.844Z,71.20
2018-08-22T07:25:18.773Z,71.00
2018-08-22T07:26:18.702Z,70.23
2018-08-22T07:27:18.634Z,69.65
2018-08-22T07:28:18.567Z,70.14
2018-08-22T07:29:18.490Z,69.74
2018-08-22T07:30:18.421Z,69.84
2018-08-22T07:31:18.352Z,69.46
2018-08-22T07:32:18.279Z,70.07
2018-08-22T07:33:18.207Z,69.68
2018-08-22T07:34:18.135Z,69.49
2018-08-22T07:35:18.074Z,68.72
2018-08-22T07:36:17.997Z,68.62
2018-08-22T07:37:17.924Z,69.78
2018-08-22T07:38:17.854Z,69.30
2018-08-22T07:39:17.783Z,68.82
2018-08-22T07:40:17.714Z,68.72
2018-08-22T07:41:17.640Z,68.52
2018-08-22T07:42:17.570Z,68.72
2018-08-22T07:43:17.500Z,68.24
2018-08-22T07:44:17.431Z,67.59
2018-08-22T07:45:17.359Z,67.21
2018-08-22T07:46:17.291Z,67.40
2018-08-22T07:47:17.220Z,67.30
2018-08-22T07:48:17.150Z,67.30
2018-08-22T07:49:17.080Z,67.30
2018-08-22T07:50:17.054Z,67.30
2018-08-22T07:51:16.940Z,67.49
2018-08-22T07:52:16.868Z,67.53
2018-08-22T07:53:16.845Z,67.14
2018-08-22T07:54:16.725Z,67.05
2018-08-22T07:55:16.763Z,66.08
2018-08-22T07:56:16.587Z,66.56
2018-08-22T07:57:16.515Z,66.08
2018-08-22T07:58:16.443Z,66.47
2018-08-22T07:59:16.386Z,65.40
2018-08-22T08:00:16.329Z,65.50
2018-08-22T08:01:16.234Z,65.69
2018-08-22T08:02:16.165Z,65.59
2018-08-22T08:03:16.105Z,65.69
2018-08-22T08:04:16.028Z,64.72
2018-08-22T08:05:15.953Z,65.79
2018-08-22T08:06:15.890Z,64.72
2018-08-22T08:07:15.817Z,64.34
2018-08-22T08:08:15.752Z,63.98
2018-08-22T08:09:15.673Z,63.79
2018-08-22T08:10:15.602Z,62.43
2018-08-22T08:11:15.544Z,62.34
2018-08-22T08:12:15.462Z,62.43
2018-08-22T08:13:15.393Z,62.34
2018-08-22T08:14:15.325Z,62.43
2018-08-22T08:15:15.259Z,62.14
2018-08-22T08:16:15.189Z,62.85
2018-08-22T08:17:15.126Z,62.17
2018-08-22T08:18:15.043Z,61.59
2018-08-22T08:19:14.978Z,60.72
2018-08-22T08:20:14.915Z,60.52
2018-08-22T08:21:14.834Z,60.24
2018-08-22T08:22:14.764Z,60.24
2018-08-22T08:23:14.696Z,59.46
2018-08-22T08:24:14.624Z,58.88
2018-08-22T08:25:14.554Z,59.56
2018-08-22T08:26:14.554Z,60.17
2018-08-22T08:27:14.417Z,59.30
2018-08-22T08:28:14.347Z,59.30
2018-08-22T08:29:14.274Z,59.30
2018-08-22T08:30:14.206Z,59.30
2018-08-22T08:31:14.138Z,59.78
2018-08-22T08:32:14.066Z,59.88
2018-08-22T08:33:13.996Z,59.97
2018-08-22T08:34:13.926Z,59.88
2018-08-22T08:35:13.858Z,60.17
2018-08-22T08:36:13.861Z,59.91
2018-08-22T08:37:13.717Z,60.10
2018-08-22T08:38:13.686Z,59.61
2018-08-22T08:39:13.578Z,60.00
2018-08-22T08:40:13.510Z,59.33
2018-08-22T08:41:13.444Z,57.09
2018-08-22T08:42:13.369Z,57.09
2018-08-22T08:43:13.348Z,57.97
2018-08-22T08:44:13.232Z,57.90
2018-08-22T08:45:13.161Z,57.51
2018-08-22T08:46:13.091Z,58.29
2018-08-22T08:47:13.025Z,57.42
2018-08-22T08:48:12.957Z,57.70
2018-08-22T08:49:12.883Z,56.45
2018-08-22T08:50:12.818Z,56.74
2018-08-22T08:51:12.747Z,57.03
2018-08-22T08:52:12.687Z,56.54
2018-08-22T08:53:12.606Z,56.15
2018-08-22T08:54:12.536Z,56.35
2018-08-22T08:55:12.472Z,56.74
2018-08-22T08:56:12.408Z,55.47
2018-08-22T08:57:12.382Z,55.02
2018-08-22T08:58:12.261Z,55.08
2018-08-22T08:59:12.193Z,55.67
2018-08-22T09:00:12.125Z,55.99
2018-08-22T09:01:12.056Z,55.79
2018-08-22T09:02:11.984Z,55.69
2018-08-22T09:03:11.917Z,55.11
2018-08-22T09:04:11.847Z,55.02
2018-08-22T09:05:11.783Z,56.09
2018-08-22T09:06:11.720Z,55.89
2018-08-22T09:07:11.641Z,56.57
2018-08-22T09:08:11.572Z,55.69
2018-08-22T09:09:11.502Z,54.92
2018-08-22T09:10:11.434Z,55.21
2018-08-22T09:11:11.367Z,55.04
2018-08-22T09:12:11.356Z,54.94
2018-08-22T09:13:11.227Z,55.33
2018-08-22T09:14:11.156Z,55.04
2018-08-22T09:15:11.093Z,56.11
2018-08-22T09:16:11.022Z,55.82
2018-08-22T09:17:10.983Z,54.85
2018-08-22T09:18:10.882Z,55.24
2018-08-22T09:19:10.814Z,55.43
2018-08-22T09:20:10.755Z,55.63
2018-08-22T09:21:10.733Z,55.04
2018-08-22T09:22:10.612Z,55.33
2018-08-22T09:23:10.539Z,55.24
2018-08-22T09:24:10.556Z,54.75
2018-08-22T09:25:10.455Z,54.97
2018-08-22T09:26:10.397Z,54.78
2018-08-22T09:27:10.264Z,53.69
2018-08-22T09:28:10.288Z,54.10
2018-08-22T09:29:10.129Z,53.61
2018-08-22T09:30:10.057Z,54.39
2018-08-22T09:31:09.990Z,54.39
2018-08-22T09:32:09.924Z,53.42
2018-08-22T09:33:09.852Z,54.39
2018-08-22T09:34:09.789Z,53.42
2018-08-22T09:35:09.722Z,53.52
2018-08-22T09:36:09.649Z,53.32
2018-08-22T09:37:09.578Z,54.49
2018-08-22T09:38:09.511Z,54.78
2018-08-22T09:39:09.440Z,54.61
2018-08-22T09:40:09.418Z,54.71
2018-08-22T09:41:09.305Z,54.03
2018-08-22T09:42:09.233Z,54.42
2018-08-22T09:43:09.202Z,54.42
2018-08-22T09:44:09.138Z,53.35
2018-08-22T09:45:09.030Z,53.83
2018-08-22T09:46:08.965Z,53.35
2018-08-22T09:47:08.895Z,52.86
2018-08-22T09:48:08.826Z,52.59
2018-08-22T09:49:08.761Z,51.23
2018-08-22T09:50:08.708Z,51.82
2018-08-22T09:51:08.632Z,51.82
2018-08-22T09:52:08.553Z,52.69
2018-08-22T09:53:08.486Z,52.79
2018-08-22T09:54:08.416Z,52.01
2018-08-22T09:55:08.348Z,51.82
2018-08-22T09:56:08.280Z,52.89
2018-08-22T09:57:08.212Z,52.79
2018-08-22T09:58:08.180Z,53.11
2018-08-22T09:59:08.076Z,52.69
2018-08-22T10:00:08.045Z,51.92
2018-08-22T10:01:07.940Z,52.72
2018-08-22T10:02:07.873Z,52.92
2018-08-22T10:03:07.804Z,52.53
2018-08-22T10:04:07.736Z,53.30
2018-08-22T10:05:07.671Z,52.72
2018-08-22T10:06:07.605Z,52.04
2018-08-22T10:07:07.580Z,51.94
2018-08-22T10:08:07.467Z,51.77
2018-08-22T10:09:07.397Z,51.48
2018-08-22T10:10:07.341Z,51.45
2018-08-22T10:11:07.261Z,51.67
2018-08-22T10:12:07.202Z,51.09
2018-08-22T10:13:07.126Z,50.51
2018-08-22T10:14:07.057Z,50.70
2018-08-22T10:15:06.991Z,50.70
2018-08-22T10:16:06.927Z,50.41
2018-08-22T10:17:06.873Z,50.70
2018-08-22T10:18:06.790Z,49.85
2018-08-22T10:19:06.829Z,49.85
2018-08-22T10:20:06.691Z,49.76
2018-08-22T10:21:06.584Z,50.73
2018-08-22T10:22:06.517Z,49.95
2018-08-22T10:23:06.448Z,50.14
2018-08-22T10:24:06.383Z,50.73
2018-08-22T10:25:06.314Z,50.04
2018-08-22T10:26:06.247Z,49.97
2018-08-22T10:27:06.273Z,49.78
2018-08-22T10:28:06.114Z,49.78
2018-08-22T10:29:06.061Z,49.19
2018-08-22T10:30:05.979Z,48.71
2018-08-22T10:31:05.912Z,49.97
2018-08-22T10:32:05.852Z,49.68
2018-08-22T10:33:05.784Z,49.78
2018-08-22T10:34:05.708Z,49.61
2018-08-22T10:35:05.716Z,49.61
2018-08-22T10:36:05.575Z,49.41
2018-08-22T10:37:05.508Z,48.83
2018-08-22T10:38:05.442Z,48.63
2018-08-22T10:39:05.373Z,49.02
2018-08-22T10:40:05.306Z,47.56
2018-08-22T10:41:05.344Z,47.88
2018-08-22T10:42:05.175Z,47.68
2018-08-22T10:43:05.110Z,47.78
2018-08-22T10:44:05.037Z,47.68
2018-08-22T10:45:04.973Z,47.97
2018-08-22T10:46:04.902Z,47.02
2018-08-22T10:47:04.839Z,48.07
2018-08-22T10:48:04.819Z,47.61
2018-08-22T10:49:04.705Z,48.39
2018-08-22T10:50:04.643Z,46.83
2018-08-22T10:51:04.569Z,46.24
2018-08-22T10:52:04.502Z,46.63
2018-08-22T10:53:04.435Z,46.92
2018-08-22T10:54:04.447Z,47.14
2018-08-22T10:55:04.302Z,46.75
2018-08-22T10:56:04.240Z,46.66
2018-08-22T10:57:04.169Z,46.66
2018-08-22T10:58:04.105Z,44.92
2018-08-22T10:59:04.039Z,44.63
2018-08-22T11:00:03.973Z,45.31
2018-08-22T11:01:03.903Z,45.41
2018-08-22T11:02:03.905Z,44.24
2018-08-22T11:03:03.773Z,43.65
2018-08-22T11:04:03.704Z,43.85
2018-08-22T11:05:03.637Z,43.26
2018-08-22T11:06:03.592Z,43.38
2018-08-22T11:07:03.505Z,44.06
2018-08-22T11:08:03.438Z,42.30
2018-08-22T11:09:03.372Z,41.91
2018-08-22T11:10:03.393Z,42.40
2018-08-22T11:11:03.248Z,42.21
2018-08-22T11:12:03.181Z,42.50
2018-08-22T11:13:03.104Z,42.21
2018-08-22T11:14:03.069Z,41.03
2018-08-22T11:15:02.975Z,40.06
2018-08-22T11:16:02.984Z,40.86
2018-08-22T11:17:02.842Z,41.44
2018-08-22T11:18:02.788Z,40.56
2018-08-22T11:19:02.714Z,41.15
2018-08-22T11:20:02.648Z,41.25
2018-08-22T11:21:02.578Z,40.27
2018-08-22T11:22:02.515Z,40.86
2018-08-22T11:23:02.446Z,41.17
2018-08-22T11:24:02.380Z,40.19
2018-08-22T11:25:02.328Z,40.29
2018-08-22T11:26:02.248Z,39.12
2018-08-22T11:27:02.184Z,39.41
2018-08-22T11:28:02.122Z,37.65
2018-08-22T11:29:02.051Z,37.85
2018-08-22T11:30:01.987Z,37.75
2018-08-22T11:31:01.921Z,38.34
2018-08-22T11:32:01.856Z,39.12
2018-08-22T11:33:01.787Z,38.84
2018-08-22T11:34:01.725Z,38.16
2018-08-22T11:35:01.658Z,37.96
2018-08-22T11:36:01.594Z,39.04
2018-08-22T11:37:01.525Z,38.16
2018-08-22T11:38:01.463Z,38.08
2018-08-22T11:39:01.398Z,37.88
2018-08-22T11:40:01.332Z,37.29
2018-08-22T11:41:01.267Z,38.47
2018-08-22T11:42:01.200Z,37.79
2018-08-22T11:43:01.134Z,37.61
2018-08-22T11:44:01.072Z,36.72
2018-08-22T11:45:01.003Z,36.33
2018-08-22T11:46:00.939Z,37.21
2018-08-22T11:47:00.876Z,37.12
2018-08-22T11:48:00.807Z,37.21
2018-08-22T11:49:00.744Z,36.82
2018-08-22T11:50:00.674Z,38.59
2018-08-22T11:51:00.611Z,37.51
2018-08-22T11:52:00.544Z,37.82
2018-08-22T11:53:00.480Z,37.82
2018-08-22T11:54:00.414Z,35.08
2018-08-22T11:55:00.354Z,35.08
2018-08-22T11:56:00.347Z,36.08
2018-08-22T11:57:00.219Z,35.78
2018-08-22T11:58:00.160Z,35.88
2018-08-22T11:59:00.094Z,36.18
2018-08-22T12:00:00.027Z,35.60
2018-08-22T12:00:59.963Z,34.72
2018-08-22T12:01:59.948Z,33.64
2018-08-22T12:02:59.833Z,32.56
2018-08-22T12:03:59.772Z,32.95
2018-08-22T12:04:59.702Z,34.72
2018-08-22T12:05:59.641Z,34.42
2018-08-22T12:06:59.575Z,34.44
2018-08-22T12:07:59.513Z,33.26
2018-08-22T12:08:59.446Z,34.44
2018-08-22T12:09:59.487Z,33.75
2018-08-22T12:10:59.320Z,34.75
2018-08-22T12:11:59.264Z,34.46
2018-08-22T12:12:59.268Z,36.05
2018-08-22T12:13:59.197Z,34.97
2018-08-22T12:14:59.146Z,36.26
2018-08-22T12:15:59.008Z,34.22
2018-08-22T12:16:58.942Z,32.56
2018-08-22T12:17:58.888Z,32.18
2018-08-22T12:18:58.891Z,32.49
2018-08-22T12:19:58.841Z,31.52
2018-08-22T12:20:58.775Z,30.66
2018-08-22T12:21:58.828Z,29.00
2018-08-22T12:22:58.806Z,28.34
2018-08-22T12:23:58.605Z,28.25
2018-08-22T12:24:58.535Z,27.28
2018-08-22T12:25:58.473Z,26.90
2018-08-22T12:26:58.418Z,26.32
2018-08-22T12:27:58.375Z,26.03
2018-08-22T12:28:58.323Z,24.07
2018-08-22T12:29:58.263Z,24.36
2018-08-22T12:30:58.258Z,25.65
2018-08-22T12:31:58.148Z,26.15
2018-08-22T12:32:58.085Z,25.89
2018-08-22T12:33:58.046Z,24.11
2018-08-22T12:34:57.975Z,24.02
2018-08-22T12:35:59.029Z,23.63
2018-08-22T12:36:57.875Z,22.34
2018-08-22T12:37:58.329Z,24.04
2018-08-22T12:38:57.750Z,23.25
2018-08-22T12:39:57.641Z,21.47
2018-08-22T12:40:57.645Z,21.28
2018-08-22T12:41:57.604Z,21.38
2018-08-22T12:42:57.559Z,21.58
2018-08-22T12:43:57.495Z,20.29
2018-08-22T12:44:57.375Z,20.19
2018-08-22T12:45:57.322Z,20.79
2018-08-22T12:46:57.271Z,20.70
2018-08-22T12:47:57.218Z,20.21
2018-08-22T12:48:57.165Z,19.82
2018-08-22T12:49:57.172Z,20.62
2018-08-22T12:50:57.127Z,21.74
2018-08-22T12:51:57.008Z,19.76
2018-08-22T12:52:57.015Z,18.58